sensor_id;sensor_type;location;lat;lon;timestamp;temperature;humidity
851;DHT22;412;51.400;7.480;2024-01-30T00:01:54;10.80;99.90
851;DHT22;412;51.400;7.480;2024-01-30T00:04:20;10.80;99.90
851;DHT22;412;51.400;7.480;2024-01-30T00:06:46;10.80;99.90
851;DHT22;412;51.400;7.480;2024-01-30T00:09:11;10.80;99.90
851;DHT22;412;51.400;7.480;2024-01-30T00:11:37;10.80;99.90
851;DHT22;412;51.400;7.480;2024-01-30T00:14:04;10.80;99.90
851;DHT22;412;51.400;7.480;2024-01-30T00:16:30;10.80;99.90
851;DHT22;412;51.400;7.480;2024-01-30T00:18:56;10.80;99.90
851;DHT22;412;51.400;7.480;2024-01-30T00:21:22;10.70;99.90
851;DHT22;412;51.400;7.480;2024-01-30T00:23:48;10.70;99.90
851;DHT22;412;51.400;7.480;2024-01-30T00:26:14;10.70;99.90
851;DHT22;412;51.400;7.480;2024-01-30T00:28:41;10.70;99.90
851;DHT22;412;51.400;7.480;2024-01-30T00:31:07;10.70;99.90
851;DHT22;412;51.400;7.480;2024-01-30T00:33:32;10.70;99.90
851;DHT22;412;51.400;7.480;2024-01-30T00:35:58;10.70;99.90
851;DHT22;412;51.400;7.480;2024-01-30T00:38:24;10.70;99.90
851;DHT22;412;51.400;7.480;2024-01-30T00:40:50;10.70;99.90
851;DHT22;412;51.400;7.480;2024-01-30T00:43:16;10.70;99.90
851;DHT22;412;51.400;7.480;2024-01-30T00:45:43;10.60;99.90
851;DHT22;412;51.400;7.480;2024-01-30T00:48:09;10.60;99.90
851;DHT22;412;51.400;7.480;2024-01-30T00:50:35;10.60;99.90
851;DHT22;412;51.400;7.480;2024-01-30T00:53:01;10.60;99.90
851;DHT22;412;51.400;7.480;2024-01-30T00:55:27;10.60;99.90
851;DHT22;412;51.400;7.480;2024-01-30T00:57:52;10.60;99.90
851;DHT22;412;51.400;7.480;2024-01-30T01:00:18;10.50;99.90
851;DHT22;412;51.400;7.480;2024-01-30T01:02:46;10.50;99.90
851;DHT22;412;51.400;7.480;2024-01-30T01:05:12;10.60;99.90
851;DHT22;412;51.400;7.480;2024-01-30T01:07:38;10.60;99.90
851;DHT22;412;51.400;7.480;2024-01-30T01:10:06;10.60;99.90
851;DHT22;412;51.400;7.480;2024-01-30T01:12:31;10.60;99.90
851;DHT22;412;51.400;7.480;2024-01-30T01:14:57;10.60;99.90
851;DHT22;412;51.400;7.480;2024-01-30T01:17:23;10.60;99.90
851;DHT22;412;51.400;7.480;2024-01-30T01:19:48;10.50;99.90
851;DHT22;412;51.400;7.480;2024-01-30T01:22:15;10.50;99.90
851;DHT22;412;51.400;7.480;2024-01-30T01:24:42;10.50;99.90
851;DHT22;412;51.400;7.480;2024-01-30T01:27:08;10.50;99.90
851;DHT22;412;51.400;7.480;2024-01-30T01:29:34;10.50;99.90
851;DHT22;412;51.400;7.480;2024-01-30T01:31:59;10.40;99.90
851;DHT22;412;51.400;7.480;2024-01-30T01:34:25;10.50;99.90
851;DHT22;412;51.400;7.480;2024-01-30T01:36:51;10.50;99.90
851;DHT22;412;51.400;7.480;2024-01-30T01:39:17;10.50;99.90
851;DHT22;412;51.400;7.480;2024-01-30T01:41:43;10.50;99.90
851;DHT22;412;51.400;7.480;2024-01-30T01:44:09;10.60;99.90
851;DHT22;412;51.400;7.480;2024-01-30T01:46:35;10.70;99.90
851;DHT22;412;51.400;7.480;2024-01-30T01:49:03;10.70;99.90
851;DHT22;412;51.400;7.480;2024-01-30T01:51:31;10.80;99.90
851;DHT22;412;51.400;7.480;2024-01-30T01:53:58;10.90;99.90
851;DHT22;412;51.400;7.480;2024-01-30T01:56:27;10.90;99.90
851;DHT22;412;51.400;7.480;2024-01-30T01:58:55;11.00;99.90
851;DHT22;412;51.400;7.480;2024-01-30T02:01:21;11.00;99.90
851;DHT22;412;51.400;7.480;2024-01-30T02:03:48;11.10;99.90
851;DHT22;412;51.400;7.480;2024-01-30T02:06:15;11.10;99.90
851;DHT22;412;51.400;7.480;2024-01-30T02:08:42;11.10;99.90
851;DHT22;412;51.400;7.480;2024-01-30T02:11:08;11.10;99.90
851;DHT22;412;51.400;7.480;2024-01-30T02:13:35;11.10;99.90
851;DHT22;412;51.400;7.480;2024-01-30T02:16:01;11.20;99.90
851;DHT22;412;51.400;7.480;2024-01-30T02:18:27;11.30;99.90
851;DHT22;412;51.400;7.480;2024-01-30T02:20:54;11.40;99.90
851;DHT22;412;51.400;7.480;2024-01-30T02:23:24;11.40;99.90
851;DHT22;412;51.400;7.480;2024-01-30T02:25:50;11.40;99.90
851;DHT22;412;51.400;7.480;2024-01-30T02:28:19;11.40;99.90
851;DHT22;412;51.400;7.480;2024-01-30T02:30:45;11.40;99.90
851;DHT22;412;51.400;7.480;2024-01-30T02:33:12;11.30;99.90
851;DHT22;412;51.400;7.480;2024-01-30T02:35:38;11.30;99.90
851;DHT22;412;51.400;7.480;2024-01-30T02:38:03;11.30;99.90
851;DHT22;412;51.400;7.480;2024-01-30T02:40:30;11.20;99.90
851;DHT22;412;51.400;7.480;2024-01-30T02:42:56;11.20;99.90
851;DHT22;412;51.400;7.480;2024-01-30T02:45:22;11.20;99.90
851;DHT22;412;51.400;7.480;2024-01-30T02:47:47;11.20;99.90
851;DHT22;412;51.400;7.480;2024-01-30T02:50:13;11.10;99.90
851;DHT22;412;51.400;7.480;2024-01-30T02:52:41;11.10;99.90
851;DHT22;412;51.400;7.480;2024-01-30T02:55:06;11.10;99.90
851;DHT22;412;51.400;7.480;2024-01-30T02:57:32;11.10;99.90
851;DHT22;412;51.400;7.480;2024-01-30T02:59:59;11.10;99.90
851;DHT22;412;51.400;7.480;2024-01-30T03:02:25;11.00;99.90
851;DHT22;412;51.400;7.480;2024-01-30T03:04:51;11.00;99.90
851;DHT22;412;51.400;7.480;2024-01-30T03:07:17;11.00;99.90
851;DHT22;412;51.400;7.480;2024-01-30T03:09:43;11.00;99.90
851;DHT22;412;51.400;7.480;2024-01-30T03:12:09;11.00;99.90
851;DHT22;412;51.400;7.480;2024-01-30T03:14:35;11.00;99.90
851;DHT22;412;51.400;7.480;2024-01-30T03:17:01;10.90;99.90
851;DHT22;412;51.400;7.480;2024-01-30T03:19:28;10.90;99.90
851;DHT22;412;51.400;7.480;2024-01-30T03:21:54;10.90;99.90
851;DHT22;412;51.400;7.480;2024-01-30T03:24:19;10.90;99.90
851;DHT22;412;51.400;7.480;2024-01-30T03:26:45;10.90;99.90
851;DHT22;412;51.400;7.480;2024-01-30T03:29:11;10.90;99.90
851;DHT22;412;51.400;7.480;2024-01-30T03:31:36;10.90;99.90
851;DHT22;412;51.400;7.480;2024-01-30T03:34:02;10.90;99.90
851;DHT22;412;51.400;7.480;2024-01-30T03:36:28;10.90;99.90
851;DHT22;412;51.400;7.480;2024-01-30T03:38:54;10.90;99.90
851;DHT22;412;51.400;7.480;2024-01-30T03:41:20;10.90;99.90
851;DHT22;412;51.400;7.480;2024-01-30T03:43:46;10.90;99.90
851;DHT22;412;51.400;7.480;2024-01-30T03:46:12;10.80;99.90
851;DHT22;412;51.400;7.480;2024-01-30T03:48:38;10.80;99.90
851;DHT22;412;51.400;7.480;2024-01-30T03:51:05;10.80;99.90
851;DHT22;412;51.400;7.480;2024-01-30T03:53:31;10.80;99.90
851;DHT22;412;51.400;7.480;2024-01-30T03:55:57;10.80;99.90
851;DHT22;412;51.400;7.480;2024-01-30T03:58:22;10.80;99.90
851;DHT22;412;51.400;7.480;2024-01-30T04:00:48;10.80;99.90
851;DHT22;412;51.400;7.480;2024-01-30T04:03:17;10.80;99.90
851;DHT22;412;51.400;7.480;2024-01-30T04:05:42;10.80;99.90
851;DHT22;412;51.400;7.480;2024-01-30T04:08:09;10.80;99.90
851;DHT22;412;51.400;7.480;2024-01-30T04:10:34;10.80;99.90
851;DHT22;412;51.400;7.480;2024-01-30T04:13:00;10.80;99.90
851;DHT22;412;51.400;7.480;2024-01-30T04:15:26;10.80;99.90
851;DHT22;412;51.400;7.480;2024-01-30T04:17:52;10.80;99.90
851;DHT22;412;51.400;7.480;2024-01-30T04:20:18;10.80;99.90
851;DHT22;412;51.400;7.480;2024-01-30T04:22:44;10.80;99.90
851;DHT22;412;51.400;7.480;2024-01-30T04:25:11;10.80;99.90
851;DHT22;412;51.400;7.480;2024-01-30T04:27:37;10.80;99.90
851;DHT22;412;51.400;7.480;2024-01-30T04:30:03;10.80;99.90
851;DHT22;412;51.400;7.480;2024-01-30T04:32:29;10.80;99.90
851;DHT22;412;51.400;7.480;2024-01-30T04:34:55;10.80;99.90
851;DHT22;412;51.400;7.480;2024-01-30T04:37:21;10.80;99.90
851;DHT22;412;51.400;7.480;2024-01-30T04:39:46;10.80;99.90
851;DHT22;412;51.400;7.480;2024-01-30T04:42:12;10.80;99.90
851;DHT22;412;51.400;7.480;2024-01-30T04:44:38;10.80;99.90
851;DHT22;412;51.400;7.480;2024-01-30T04:47:04;10.80;99.90
851;DHT22;412;51.400;7.480;2024-01-30T04:49:31;10.80;99.90
851;DHT22;412;51.400;7.480;2024-01-30T04:51:57;10.80;99.90
851;DHT22;412;51.400;7.480;2024-01-30T04:54:24;10.80;99.90
851;DHT22;412;51.400;7.480;2024-01-30T04:56:50;10.80;99.90
851;DHT22;412;51.400;7.480;2024-01-30T04:59:15;10.80;99.90
851;DHT22;412;51.400;7.480;2024-01-30T05:01:41;10.70;99.90
851;DHT22;412;51.400;7.480;2024-01-30T05:04:10;10.80;99.90
851;DHT22;412;51.400;7.480;2024-01-30T05:06:37;10.70;99.90
851;DHT22;412;51.400;7.480;2024-01-30T05:09:03;10.70;99.90
851;DHT22;412;51.400;7.480;2024-01-30T05:11:36;10.80;99.90
851;DHT22;412;51.400;7.480;2024-01-30T05:14:02;10.70;99.90
851;DHT22;412;51.400;7.480;2024-01-30T05:16:27;10.70;99.90
851;DHT22;412;51.400;7.480;2024-01-30T05:18:53;10.70;99.90
851;DHT22;412;51.400;7.480;2024-01-30T05:21:19;10.70;99.90
851;DHT22;412;51.400;7.480;2024-01-30T05:23:44;10.70;99.90
851;DHT22;412;51.400;7.480;2024-01-30T05:26:10;10.70;99.90
851;DHT22;412;51.400;7.480;2024-01-30T05:28:36;10.60;99.90
851;DHT22;412;51.400;7.480;2024-01-30T05:31:02;10.60;99.90
851;DHT22;412;51.400;7.480;2024-01-30T05:33:28;10.60;99.90
851;DHT22;412;51.400;7.480;2024-01-30T05:35:53;10.60;99.90
851;DHT22;412;51.400;7.480;2024-01-30T05:38:22;10.60;99.90
851;DHT22;412;51.400;7.480;2024-01-30T05:40:48;10.60;99.90
851;DHT22;412;51.400;7.480;2024-01-30T05:43:13;10.60;99.90
851;DHT22;412;51.400;7.480;2024-01-30T05:45:39;10.70;99.90
851;DHT22;412;51.400;7.480;2024-01-30T05:48:05;10.70;99.90
851;DHT22;412;51.400;7.480;2024-01-30T05:50:31;10.60;99.90
851;DHT22;412;51.400;7.480;2024-01-30T05:52:57;10.60;99.90
851;DHT22;412;51.400;7.480;2024-01-30T05:55:22;10.60;99.90
851;DHT22;412;51.400;7.480;2024-01-30T05:57:48;10.60;99.90
851;DHT22;412;51.400;7.480;2024-01-30T06:00:14;10.60;99.90
851;DHT22;412;51.400;7.480;2024-01-30T06:02:40;10.60;99.90
851;DHT22;412;51.400;7.480;2024-01-30T06:05:06;10.60;99.90
851;DHT22;412;51.400;7.480;2024-01-30T06:07:32;10.60;99.90
851;DHT22;412;51.400;7.480;2024-01-30T06:09:57;10.60;99.90
851;DHT22;412;51.400;7.480;2024-01-30T06:12:23;10.60;99.90
851;DHT22;412;51.400;7.480;2024-01-30T06:14:49;10.60;99.90
851;DHT22;412;51.400;7.480;2024-01-30T06:17:15;10.60;99.90
851;DHT22;412;51.400;7.480;2024-01-30T06:19:41;10.60;99.90
851;DHT22;412;51.400;7.480;2024-01-30T06:22:07;10.60;99.90
851;DHT22;412;51.400;7.480;2024-01-30T06:24:32;10.60;99.90
851;DHT22;412;51.400;7.480;2024-01-30T06:26:59;10.60;99.90
851;DHT22;412;51.400;7.480;2024-01-30T06:29:26;10.60;99.90
851;DHT22;412;51.400;7.480;2024-01-30T06:31:52;10.50;99.90
851;DHT22;412;51.400;7.480;2024-01-30T06:34:18;10.60;99.90
851;DHT22;412;51.400;7.480;2024-01-30T06:36:43;10.50;99.90
851;DHT22;412;51.400;7.480;2024-01-30T06:39:09;10.50;99.90
851;DHT22;412;51.400;7.480;2024-01-30T06:41:35;10.50;99.90
851;DHT22;412;51.400;7.480;2024-01-30T06:44:02;10.50;99.90
851;DHT22;412;51.400;7.480;2024-01-30T06:46:29;10.50;99.90
851;DHT22;412;51.400;7.480;2024-01-30T06:48:55;10.50;99.90
851;DHT22;412;51.400;7.480;2024-01-30T06:51:21;10.50;99.90
851;DHT22;412;51.400;7.480;2024-01-30T06:53:46;10.50;99.90
851;DHT22;412;51.400;7.480;2024-01-30T06:56:12;10.60;99.90
851;DHT22;412;51.400;7.480;2024-01-30T06:58:38;10.60;99.90
851;DHT22;412;51.400;7.480;2024-01-30T07:01:04;10.60;99.90
851;DHT22;412;51.400;7.480;2024-01-30T07:03:30;10.60;99.90
851;DHT22;412;51.400;7.480;2024-01-30T07:05:55;10.60;99.90
851;DHT22;412;51.400;7.480;2024-01-30T07:08:21;10.60;99.90
851;DHT22;412;51.400;7.480;2024-01-30T07:10:47;10.60;99.90
851;DHT22;412;51.400;7.480;2024-01-30T07:13:13;10.60;99.90
851;DHT22;412;51.400;7.480;2024-01-30T07:15:42;10.60;99.90
851;DHT22;412;51.400;7.480;2024-01-30T07:18:08;10.60;99.90
851;DHT22;412;51.400;7.480;2024-01-30T07:20:35;10.60;99.90
851;DHT22;412;51.400;7.480;2024-01-30T07:23:01;10.60;99.90
851;DHT22;412;51.400;7.480;2024-01-30T07:25:27;10.60;99.90
851;DHT22;412;51.400;7.480;2024-01-30T07:27:55;10.70;99.90
851;DHT22;412;51.400;7.480;2024-01-30T07:30:21;10.70;99.90
851;DHT22;412;51.400;7.480;2024-01-30T07:32:47;10.70;99.90
851;DHT22;412;51.400;7.480;2024-01-30T07:35:14;10.70;99.90
851;DHT22;412;51.400;7.480;2024-01-30T07:37:39;10.80;99.90
851;DHT22;412;51.400;7.480;2024-01-30T07:40:06;10.80;99.90
851;DHT22;412;51.400;7.480;2024-01-30T07:42:32;10.80;99.90
851;DHT22;412;51.400;7.480;2024-01-30T07:44:59;10.80;99.90
851;DHT22;412;51.400;7.480;2024-01-30T07:47:25;10.80;99.90
851;DHT22;412;51.400;7.480;2024-01-30T07:49:51;10.80;99.90
851;DHT22;412;51.400;7.480;2024-01-30T07:52:17;10.80;99.90
851;DHT22;412;51.400;7.480;2024-01-30T07:54:42;10.90;99.90
851;DHT22;412;51.400;7.480;2024-01-30T07:57:08;10.90;99.90
851;DHT22;412;51.400;7.480;2024-01-30T07:59:34;10.90;99.90
851;DHT22;412;51.400;7.480;2024-01-30T08:02:00;11.00;99.90
851;DHT22;412;51.400;7.480;2024-01-30T08:04:25;11.00;99.90
851;DHT22;412;51.400;7.480;2024-01-30T08:06:51;11.10;99.90
851;DHT22;412;51.400;7.480;2024-01-30T08:09:17;11.10;99.90
851;DHT22;412;51.400;7.480;2024-01-30T08:11:43;11.20;99.90
851;DHT22;412;51.400;7.480;2024-01-30T08:14:08;11.30;99.90
851;DHT22;412;51.400;7.480;2024-01-30T08:16:34;11.40;99.90
851;DHT22;412;51.400;7.480;2024-01-30T08:19:00;11.40;99.90
851;DHT22;412;51.400;7.480;2024-01-30T08:21:26;11.50;99.90
851;DHT22;412;51.400;7.480;2024-01-30T08:23:52;11.60;99.90
851;DHT22;412;51.400;7.480;2024-01-30T08:26:18;11.60;99.90
851;DHT22;412;51.400;7.480;2024-01-30T08:28:44;11.70;99.90
851;DHT22;412;51.400;7.480;2024-01-30T08:31:12;11.80;99.90
851;DHT22;412;51.400;7.480;2024-01-30T08:33:38;11.90;99.90
851;DHT22;412;51.400;7.480;2024-01-30T08:36:04;11.90;99.90
851;DHT22;412;51.400;7.480;2024-01-30T08:38:30;11.90;99.90
851;DHT22;412;51.400;7.480;2024-01-30T08:40:56;11.90;99.90
851;DHT22;412;51.400;7.480;2024-01-30T08:43:22;11.90;99.90
851;DHT22;412;51.400;7.480;2024-01-30T08:45:47;12.00;99.90
851;DHT22;412;51.400;7.480;2024-01-30T08:48:13;12.30;99.90
851;DHT22;412;51.400;7.480;2024-01-30T08:50:39;12.70;99.90
851;DHT22;412;51.400;7.480;2024-01-30T08:53:05;13.10;99.90
851;DHT22;412;51.400;7.480;2024-01-30T08:55:30;13.40;99.90
851;DHT22;412;51.400;7.480;2024-01-30T08:57:56;13.70;99.90
851;DHT22;412;51.400;7.480;2024-01-30T09:00:22;14.00;99.90
851;DHT22;412;51.400;7.480;2024-01-30T09:02:47;14.30;99.90
851;DHT22;412;51.400;7.480;2024-01-30T09:05:13;14.50;99.90
851;DHT22;412;51.400;7.480;2024-01-30T09:07:39;14.70;99.90
851;DHT22;412;51.400;7.480;2024-01-30T09:10:05;14.90;99.90
851;DHT22;412;51.400;7.480;2024-01-30T09:12:31;15.10;99.90
851;DHT22;412;51.400;7.480;2024-01-30T09:14:57;15.20;99.90
851;DHT22;412;51.400;7.480;2024-01-30T09:17:23;15.30;99.90
851;DHT22;412;51.400;7.480;2024-01-30T09:19:49;15.40;99.90
851;DHT22;412;51.400;7.480;2024-01-30T09:22:14;15.50;99.90
851;DHT22;412;51.400;7.480;2024-01-30T09:24:40;15.70;99.90
851;DHT22;412;51.400;7.480;2024-01-30T09:27:06;15.80;99.90
851;DHT22;412;51.400;7.480;2024-01-30T09:29:32;15.80;99.90
851;DHT22;412;51.400;7.480;2024-01-30T09:32:00;16.00;99.90
851;DHT22;412;51.400;7.480;2024-01-30T09:34:26;16.10;99.90
851;DHT22;412;51.400;7.480;2024-01-30T09:36:51;16.10;99.90
851;DHT22;412;51.400;7.480;2024-01-30T09:39:17;16.10;99.90
851;DHT22;412;51.400;7.480;2024-01-30T09:41:49;15.90;99.90
851;DHT22;412;51.400;7.480;2024-01-30T09:44:16;15.60;99.90
851;DHT22;412;51.400;7.480;2024-01-30T09:46:42;15.50;99.90
851;DHT22;412;51.400;7.480;2024-01-30T09:49:09;15.30;99.90
851;DHT22;412;51.400;7.480;2024-01-30T09:51:35;15.10;99.90
851;DHT22;412;51.400;7.480;2024-01-30T09:54:02;15.00;99.90
851;DHT22;412;51.400;7.480;2024-01-30T09:56:28;14.90;99.90
851;DHT22;412;51.400;7.480;2024-01-30T09:58:54;14.70;99.90
851;DHT22;412;51.400;7.480;2024-01-30T10:01:20;14.50;99.90
851;DHT22;412;51.400;7.480;2024-01-30T10:03:46;14.30;99.90
851;DHT22;412;51.400;7.480;2024-01-30T10:06:13;14.20;99.90
851;DHT22;412;51.400;7.480;2024-01-30T10:08:39;14.20;99.90
851;DHT22;412;51.400;7.480;2024-01-30T10:11:05;14.20;99.90
851;DHT22;412;51.400;7.480;2024-01-30T10:13:32;14.10;99.90
851;DHT22;412;51.400;7.480;2024-01-30T10:15:57;14.10;99.90
851;DHT22;412;51.400;7.480;2024-01-30T10:18:23;14.10;99.90
851;DHT22;412;51.400;7.480;2024-01-30T10:20:49;14.10;99.90
851;DHT22;412;51.400;7.480;2024-01-30T10:23:15;14.10;99.90
851;DHT22;412;51.400;7.480;2024-01-30T10:25:41;13.90;99.90
851;DHT22;412;51.400;7.480;2024-01-30T10:28:07;13.70;99.90
851;DHT22;412;51.400;7.480;2024-01-30T10:30:33;13.80;99.90
851;DHT22;412;51.400;7.480;2024-01-30T10:32:58;13.80;99.90
851;DHT22;412;51.400;7.480;2024-01-30T10:35:24;13.90;99.90
851;DHT22;412;51.400;7.480;2024-01-30T10:37:50;13.90;99.90
851;DHT22;412;51.400;7.480;2024-01-30T10:40:16;13.90;99.90
851;DHT22;412;51.400;7.480;2024-01-30T10:42:45;14.10;99.90
851;DHT22;412;51.400;7.480;2024-01-30T10:45:12;14.30;99.90
851;DHT22;412;51.400;7.480;2024-01-30T10:47:47;14.50;99.90
851;DHT22;412;51.400;7.480;2024-01-30T10:50:14;14.70;99.90
851;DHT22;412;51.400;7.480;2024-01-30T10:52:41;14.80;99.90
851;DHT22;412;51.400;7.480;2024-01-30T10:55:08;14.70;99.90
851;DHT22;412;51.400;7.480;2024-01-30T10:57:37;14.80;99.90
851;DHT22;412;51.400;7.480;2024-01-30T11:00:11;14.70;99.90
851;DHT22;412;51.400;7.480;2024-01-30T11:02:43;14.60;99.90
851;DHT22;412;51.400;7.480;2024-01-30T11:05:12;14.60;99.90
851;DHT22;412;51.400;7.480;2024-01-30T11:07:39;14.70;99.90
851;DHT22;412;51.400;7.480;2024-01-30T11:10:08;14.80;99.90
851;DHT22;412;51.400;7.480;2024-01-30T11:12:39;15.10;99.90
851;DHT22;412;51.400;7.480;2024-01-30T11:15:11;15.30;99.90
851;DHT22;412;51.400;7.480;2024-01-30T11:18:03;15.60;99.90
851;DHT22;412;51.400;7.480;2024-01-30T11:20:30;16.00;99.90
851;DHT22;412;51.400;7.480;2024-01-30T11:23:01;16.30;99.90
851;DHT22;412;51.400;7.480;2024-01-30T11:25:32;16.60;99.30
851;DHT22;412;51.400;7.480;2024-01-30T11:27:58;16.80;98.80
851;DHT22;412;51.400;7.480;2024-01-30T11:33:04;17.20;97.00
851;DHT22;412;51.400;7.480;2024-01-30T11:35:41;17.20;96.30
851;DHT22;412;51.400;7.480;2024-01-30T11:38:09;17.20;96.70
851;DHT22;412;51.400;7.480;2024-01-30T11:40:37;17.20;96.30
851;DHT22;412;51.400;7.480;2024-01-30T11:43:05;17.20;96.10
851;DHT22;412;51.400;7.480;2024-01-30T11:45:31;17.10;96.50
851;DHT22;412;51.400;7.480;2024-01-30T11:47:58;17.00;96.50
851;DHT22;412;51.400;7.480;2024-01-30T11:50:25;17.00;96.50
851;DHT22;412;51.400;7.480;2024-01-30T11:52:51;16.90;96.50
851;DHT22;412;51.400;7.480;2024-01-30T11:55:17;16.90;96.80
851;DHT22;412;51.400;7.480;2024-01-30T11:57:44;16.90;97.30
851;DHT22;412;51.400;7.480;2024-01-30T12:00:17;17.00;97.10
851;DHT22;412;51.400;7.480;2024-01-30T12:02:44;16.90;97.00
851;DHT22;412;51.400;7.480;2024-01-30T12:05:14;16.90;97.30
851;DHT22;412;51.400;7.480;2024-01-30T12:07:40;16.80;97.40
851;DHT22;412;51.400;7.480;2024-01-30T12:10:08;16.60;97.70
851;DHT22;412;51.400;7.480;2024-01-30T12:12:35;16.60;99.90
851;DHT22;412;51.400;7.480;2024-01-30T12:15:01;16.60;99.90
851;DHT22;412;51.400;7.480;2024-01-30T12:17:32;17.00;99.90
851;DHT22;412;51.400;7.480;2024-01-30T12:20:09;16.90;99.90
851;DHT22;412;51.400;7.480;2024-01-30T12:22:46;16.70;99.90
851;DHT22;412;51.400;7.480;2024-01-30T12:25:17;16.50;99.90
851;DHT22;412;51.400;7.480;2024-01-30T12:27:44;16.70;99.90
851;DHT22;412;51.400;7.480;2024-01-30T12:30:12;16.70;99.90
851;DHT22;412;51.400;7.480;2024-01-30T12:32:40;16.60;99.90
851;DHT22;412;51.400;7.480;2024-01-30T12:35:11;16.70;99.90
851;DHT22;412;51.400;7.480;2024-01-30T12:37:37;16.40;99.90
851;DHT22;412;51.400;7.480;2024-01-30T12:40:03;16.40;99.90
851;DHT22;412;51.400;7.480;2024-01-30T12:42:29;16.40;99.90
851;DHT22;412;51.400;7.480;2024-01-30T12:44:57;16.50;99.90
851;DHT22;412;51.400;7.480;2024-01-30T12:47:23;16.30;99.90
851;DHT22;412;51.400;7.480;2024-01-30T12:49:49;16.40;99.90
851;DHT22;412;51.400;7.480;2024-01-30T12:52:20;16.50;99.90
851;DHT22;412;51.400;7.480;2024-01-30T12:54:46;16.50;99.90
851;DHT22;412;51.400;7.480;2024-01-30T12:57:12;16.40;99.90
851;DHT22;412;51.400;7.480;2024-01-30T12:59:38;16.30;99.90
851;DHT22;412;51.400;7.480;2024-01-30T13:02:05;16.10;99.90
851;DHT22;412;51.400;7.480;2024-01-30T13:04:31;16.00;99.90
851;DHT22;412;51.400;7.480;2024-01-30T13:06:57;15.70;99.90
851;DHT22;412;51.400;7.480;2024-01-30T13:09:23;15.60;99.90
851;DHT22;412;51.400;7.480;2024-01-30T13:11:50;15.50;99.90
851;DHT22;412;51.400;7.480;2024-01-30T13:14:17;15.30;99.90
851;DHT22;412;51.400;7.480;2024-01-30T13:16:43;15.20;99.90
851;DHT22;412;51.400;7.480;2024-01-30T13:19:09;15.30;99.90
851;DHT22;412;51.400;7.480;2024-01-30T13:21:34;15.20;99.90
851;DHT22;412;51.400;7.480;2024-01-30T13:24:00;15.10;99.90
851;DHT22;412;51.400;7.480;2024-01-30T13:26:26;15.30;99.90
851;DHT22;412;51.400;7.480;2024-01-30T13:28:52;15.20;99.90
851;DHT22;412;51.400;7.480;2024-01-30T13:31:17;15.00;99.90
851;DHT22;412;51.400;7.480;2024-01-30T13:33:45;14.70;99.90
851;DHT22;412;51.400;7.480;2024-01-30T13:36:11;14.70;99.90
851;DHT22;412;51.400;7.480;2024-01-30T13:38:37;14.70;99.90
851;DHT22;412;51.400;7.480;2024-01-30T13:41:03;15.10;99.90
851;DHT22;412;51.400;7.480;2024-01-30T13:43:29;15.30;99.90
851;DHT22;412;51.400;7.480;2024-01-30T13:45:55;15.30;99.90
851;DHT22;412;51.400;7.480;2024-01-30T13:48:21;15.30;99.90
851;DHT22;412;51.400;7.480;2024-01-30T13:50:47;15.30;99.90
851;DHT22;412;51.400;7.480;2024-01-30T13:53:13;15.30;99.90
851;DHT22;412;51.400;7.480;2024-01-30T13:55:40;14.90;99.90
851;DHT22;412;51.400;7.480;2024-01-30T13:58:06;15.10;99.90
851;DHT22;412;51.400;7.480;2024-01-30T14:00:33;15.10;99.90
851;DHT22;412;51.400;7.480;2024-01-30T14:02:59;14.90;99.90
851;DHT22;412;51.400;7.480;2024-01-30T14:05:26;14.80;99.90
851;DHT22;412;51.400;7.480;2024-01-30T14:07:53;14.70;99.90
851;DHT22;412;51.400;7.480;2024-01-30T14:10:20;14.50;99.90
851;DHT22;412;51.400;7.480;2024-01-30T14:12:51;14.50;99.90
851;DHT22;412;51.400;7.480;2024-01-30T14:15:17;14.40;99.90
851;DHT22;412;51.400;7.480;2024-01-30T14:17:47;14.40;99.90
851;DHT22;412;51.400;7.480;2024-01-30T14:20:14;14.30;99.90
851;DHT22;412;51.400;7.480;2024-01-30T14:22:43;14.30;99.90
851;DHT22;412;51.400;7.480;2024-01-30T14:25:10;14.30;99.90
851;DHT22;412;51.400;7.480;2024-01-30T14:27:36;14.20;99.90
851;DHT22;412;51.400;7.480;2024-01-30T14:30:02;14.20;99.90
851;DHT22;412;51.400;7.480;2024-01-30T14:32:29;14.10;99.90
851;DHT22;412;51.400;7.480;2024-01-30T14:34:54;14.10;99.90
851;DHT22;412;51.400;7.480;2024-01-30T14:37:21;14.00;99.90
851;DHT22;412;51.400;7.480;2024-01-30T14:39:47;14.10;99.90
851;DHT22;412;51.400;7.480;2024-01-30T14:42:14;14.00;99.90
851;DHT22;412;51.400;7.480;2024-01-30T14:44:40;14.00;99.90
851;DHT22;412;51.400;7.480;2024-01-30T14:47:06;14.00;99.90
851;DHT22;412;51.400;7.480;2024-01-30T14:49:33;14.00;99.90
851;DHT22;412;51.400;7.480;2024-01-30T14:51:59;14.00;99.90
851;DHT22;412;51.400;7.480;2024-01-30T14:54:26;14.00;99.90
851;DHT22;412;51.400;7.480;2024-01-30T14:56:52;14.00;99.90
851;DHT22;412;51.400;7.480;2024-01-30T14:59:18;14.00;99.90
851;DHT22;412;51.400;7.480;2024-01-30T15:01:44;14.00;99.90
851;DHT22;412;51.400;7.480;2024-01-30T15:04:10;13.90;99.90
851;DHT22;412;51.400;7.480;2024-01-30T15:06:37;14.00;99.90
851;DHT22;412;51.400;7.480;2024-01-30T15:09:03;13.90;99.90
851;DHT22;412;51.400;7.480;2024-01-30T15:11:29;13.90;99.90
851;DHT22;412;51.400;7.480;2024-01-30T15:13:56;13.90;99.90
851;DHT22;412;51.400;7.480;2024-01-30T15:16:22;13.90;99.90
851;DHT22;412;51.400;7.480;2024-01-30T15:18:47;13.90;99.90
851;DHT22;412;51.400;7.480;2024-01-30T15:21:13;13.90;99.90
851;DHT22;412;51.400;7.480;2024-01-30T15:23:39;13.90;99.90
851;DHT22;412;51.400;7.480;2024-01-30T15:26:05;13.90;99.90
851;DHT22;412;51.400;7.480;2024-01-30T15:28:36;13.90;99.90
851;DHT22;412;51.400;7.480;2024-01-30T15:31:03;13.90;99.90
851;DHT22;412;51.400;7.480;2024-01-30T15:33:29;14.00;99.90
851;DHT22;412;51.400;7.480;2024-01-30T15:35:55;14.00;99.90
851;DHT22;412;51.400;7.480;2024-01-30T15:38:21;14.00;99.90
851;DHT22;412;51.400;7.480;2024-01-30T15:40:47;14.00;99.90
851;DHT22;412;51.400;7.480;2024-01-30T15:43:13;14.00;99.90
851;DHT22;412;51.400;7.480;2024-01-30T15:45:38;14.00;99.90
851;DHT22;412;51.400;7.480;2024-01-30T15:48:05;14.00;99.90
851;DHT22;412;51.400;7.480;2024-01-30T15:50:31;14.00;99.90
851;DHT22;412;51.400;7.480;2024-01-30T15:52:57;14.00;99.90
851;DHT22;412;51.400;7.480;2024-01-30T15:55:23;14.00;99.90
851;DHT22;412;51.400;7.480;2024-01-30T15:57:49;14.00;99.90
851;DHT22;412;51.400;7.480;2024-01-30T16:00:15;14.00;99.90
851;DHT22;412;51.400;7.480;2024-01-30T16:02:41;13.90;99.90
851;DHT22;412;51.400;7.480;2024-01-30T16:05:07;13.90;99.90
851;DHT22;412;51.400;7.480;2024-01-30T16:07:38;13.90;99.90
851;DHT22;412;51.400;7.480;2024-01-30T16:10:04;13.90;99.90
851;DHT22;412;51.400;7.480;2024-01-30T16:12:30;13.90;99.90
851;DHT22;412;51.400;7.480;2024-01-30T16:14:55;13.90;99.90
851;DHT22;412;51.400;7.480;2024-01-30T16:17:21;13.90;99.90
851;DHT22;412;51.400;7.480;2024-01-30T16:19:48;13.90;99.90
851;DHT22;412;51.400;7.480;2024-01-30T16:22:17;13.90;99.90
851;DHT22;412;51.400;7.480;2024-01-30T16:24:43;13.80;99.90
851;DHT22;412;51.400;7.480;2024-01-30T16:27:09;13.70;99.90
851;DHT22;412;51.400;7.480;2024-01-30T16:29:35;13.70;99.90
851;DHT22;412;51.400;7.480;2024-01-30T16:32:02;13.60;99.90